< < Back
Terminal Aerodrome Forecast


Current Version              Previous Versions:   1  2  3  4  5  6  7  8  9  

Terminal Aerodrome Forecast

910
FTUS42 KMLB 211500 AAA
TAFMCO
TAF AMD
KMCO 211511Z 2115/2212 24004KT P6SM FEW060 OVC250
     FM212300 30003KT P6SM SCT090 BKN250=



Latest METAR

165
SAUS70 KWBC 220500 RRK
MTRMCO
METAR KMCO 220453Z 18003KT 10SM FEW015 BKN250 21/21 A2995 RMK AO2 SLP140
T02110211 402890200


USA.gov is the U.S. government's official web portal to all federal, state and local government web resources and services.